Montanha, Brazil
Current Conditions -  °F | °C
As of 5:00 AM on Friday 24 Oct 2014 (Local Time) from SBPS Reporting Station
Overcast Overcast  
Wind Chill: 70°   Ceiling: 5000
Heat Index: 70°   Visibility: 6mi
Dew Point: 66°   Wind: 2mph
Humidity: 88%   Direction: 240°WSW
Pressure: 30"   Gusts: NA
Location:  18.13°S, 40.36°W
Report Text: SBPS 240700Z 24002KT 9999 SCT020 OVC050 21/19 Q1016
Loading
Personal Weather Stations






























Interactive Weather Map
Tropical Storm Tracking
New forecast layout! Learn more

10-Day Weather Forecast

Advertisements
Track Severe Weather on mobile